sensor_id;sensor_type;location;lat;lon;timestamp;pressure;altitude;pressure_sealevel;temperature;humidity
17505;BME280;8870;50.950;11.762;2023-05-03T00:01:11;99400.63;;;7.04;100.00
17505;BME280;8870;50.950;11.762;2023-05-03T00:06:30;99394.41;;;7.04;100.00
17505;BME280;8870;50.950;11.762;2023-05-03T00:12:03;99400.22;;;6.98;100.00
17505;BME280;8870;50.950;11.762;2023-05-03T00:17:22;99406.66;;;6.95;100.00
17505;BME280;8870;50.950;11.762;2023-05-03T00:22:52;99393.50;;;6.92;100.00
17505;BME280;8870;50.950;11.762;2023-05-03T00:28:13;99393.97;;;6.86;100.00
17505;BME280;8870;50.950;11.762;2023-05-03T00:33:44;99391.50;;;6.83;100.00
17505;BME280;8870;50.950;11.762;2023-05-03T00:39:03;99384.03;;;6.75;100.00
17505;BME280;8870;50.950;11.762;2023-05-03T00:44:37;99382.66;;;6.69;100.00
17505;BME280;8870;50.950;11.762;2023-05-03T00:50:03;99377.03;;;6.61;100.00
17505;BME280;8870;50.950;11.762;2023-05-03T00:55:35;99366.25;;;6.50;100.00
17505;BME280;8870;50.950;11.762;2023-05-03T01:00:56;99372.28;;;6.27;100.00
17505;BME280;8870;50.950;11.762;2023-05-03T01:06:35;99360.88;;;6.12;100.00
17505;BME280;8870;50.950;11.762;2023-05-03T01:12:13;99357.88;;;6.04;100.00
17505;BME280;8870;50.950;11.762;2023-05-03T01:17:50;99367.59;;;5.92;100.00
17505;BME280;8870;50.950;11.762;2023-05-03T01:23:13;99364.28;;;5.89;100.00
17505;BME280;8870;50.950;11.762;2023-05-03T01:28:47;99352.41;;;5.80;100.00
17505;BME280;8870;50.950;11.762;2023-05-03T01:34:21;99365.59;;;5.70;100.00
17505;BME280;8870;50.950;11.762;2023-05-03T01:40:00;99372.75;;;5.57;100.00
17505;BME280;8870;50.950;11.762;2023-05-03T01:45:21;99368.75;;;5.49;100.00
17505;BME280;8870;50.950;11.762;2023-05-03T01:50:53;99367.91;;;5.49;100.00
17505;BME280;8870;50.950;11.762;2023-05-03T01:56:24;99362.91;;;5.44;100.00
17505;BME280;8870;50.950;11.762;2023-05-03T02:01:45;99369.19;;;5.43;100.00
17505;BME280;8870;50.950;11.762;2023-05-03T02:07:15;99371.06;;;5.15;100.00
17505;BME280;8870;50.950;11.762;2023-05-03T02:12:34;99367.00;;;4.82;100.00
17505;BME280;8870;50.950;11.762;2023-05-03T02:18:09;99362.78;;;4.65;100.00
17505;BME280;8870;50.950;11.762;2023-05-03T02:23:28;99368.91;;;4.53;100.00
17505;BME280;8870;50.950;11.762;2023-05-03T02:29:00;99373.78;;;4.46;100.00
17505;BME280;8870;50.950;11.762;2023-05-03T02:34:22;99378.38;;;4.44;100.00
17505;BME280;8870;50.950;11.762;2023-05-03T02:39:53;99377.53;;;4.43;100.00
17505;BME280;8870;50.950;11.762;2023-05-03T02:45:12;99380.19;;;4.43;100.00
17505;BME280;8870;50.950;11.762;2023-05-03T02:50:45;99383.69;;;4.44;100.00
17505;BME280;8870;50.950;11.762;2023-05-03T02:56:17;99389.16;;;4.42;100.00
17505;BME280;8870;50.950;11.762;2023-05-03T03:01:36;99393.84;;;4.39;100.00
17505;BME280;8870;50.950;11.762;2023-05-03T03:07:10;99393.16;;;4.35;100.00
17505;BME280;8870;50.950;11.762;2023-05-03T03:12:31;99394.22;;;4.32;100.00
17505;BME280;8870;50.950;11.762;2023-05-03T03:18:09;99405.28;;;4.26;100.00
17505;BME280;8870;50.950;11.762;2023-05-03T03:23:30;99408.44;;;4.19;100.00
17505;BME280;8870;50.950;11.762;2023-05-03T03:29:01;99412.22;;;4.14;100.00
17505;BME280;8870;50.950;11.762;2023-05-03T03:34:20;99418.78;;;4.09;100.00
17505;BME280;8870;50.950;11.762;2023-05-03T03:39:54;99423.56;;;4.04;100.00
17505;BME280;8870;50.950;11.762;2023-05-03T03:45:13;99427.56;;;3.96;100.00
17505;BME280;8870;50.950;11.762;2023-05-03T03:50:46;99429.38;;;3.96;100.00
17505;BME280;8870;50.950;11.762;2023-05-03T03:56:26;99434.06;;;3.92;100.00
17505;BME280;8870;50.950;11.762;2023-05-03T04:01:45;99423.38;;;3.92;100.00
17505;BME280;8870;50.950;11.762;2023-05-03T04:07:17;99440.13;;;3.94;100.00
17505;BME280;8870;50.950;11.762;2023-05-03T04:12:38;99435.56;;;3.96;100.00
17505;BME280;8870;50.950;11.762;2023-05-03T04:17:58;99446.59;;;3.90;100.00
17505;BME280;8870;50.950;11.762;2023-05-03T04:23:30;99463.84;;;3.84;100.00
17505;BME280;8870;50.950;11.762;2023-05-03T04:28:54;99466.78;;;3.80;100.00
17505;BME280;8870;50.950;11.762;2023-05-03T04:34:28;99479.34;;;3.78;100.00
17505;BME280;8870;50.950;11.762;2023-05-03T04:39:47;99485.50;;;3.78;100.00
17505;BME280;8870;50.950;11.762;2023-05-03T04:45:25;99488.94;;;3.80;100.00
17505;BME280;8870;50.950;11.762;2023-05-03T04:50:53;99483.28;;;3.87;100.00
17505;BME280;8870;50.950;11.762;2023-05-03T04:56:26;99493.56;;;3.93;100.00
17505;BME280;8870;50.950;11.762;2023-05-03T05:01:53;99497.66;;;3.98;100.00
17505;BME280;8870;50.950;11.762;2023-05-03T05:07:25;99506.81;;;4.09;100.00
17505;BME280;8870;50.950;11.762;2023-05-03T05:12:45;99507.22;;;4.17;100.00
17505;BME280;8870;50.950;11.762;2023-05-03T05:18:18;99507.31;;;4.30;100.00
17505;BME280;8870;50.950;11.762;2023-05-03T05:23:40;99507.63;;;4.40;100.00
17505;BME280;8870;50.950;11.762;2023-05-03T05:29:13;99508.53;;;4.53;100.00
17505;BME280;8870;50.950;11.762;2023-05-03T05:34:34;99514.06;;;4.65;100.00
17505;BME280;8870;50.950;11.762;2023-05-03T05:40:11;99526.38;;;4.82;100.00
17505;BME280;8870;50.950;11.762;2023-05-03T05:45:31;99530.06;;;4.93;100.00
17505;BME280;8870;50.950;11.762;2023-05-03T05:51:07;99531.75;;;5.09;100.00
17505;BME280;8870;50.950;11.762;2023-05-03T05:56:38;99530.97;;;5.21;100.00
17505;BME280;8870;50.950;11.762;2023-05-03T06:01:56;99523.25;;;5.44;100.00
17505;BME280;8870;50.950;11.762;2023-05-03T06:07:30;99527.22;;;5.51;100.00
17505;BME280;8870;50.950;11.762;2023-05-03T06:12:49;99518.06;;;5.68;100.00
17505;BME280;8870;50.950;11.762;2023-05-03T06:18:21;99515.97;;;5.86;100.00
17505;BME280;8870;50.950;11.762;2023-05-03T06:23:43;99518.50;;;6.03;100.00
17505;BME280;8870;50.950;11.762;2023-05-03T06:29:15;99519.25;;;6.17;100.00
17505;BME280;8870;50.950;11.762;2023-05-03T06:34:33;99527.94;;;6.34;100.00
17505;BME280;8870;50.950;11.762;2023-05-03T06:40:08;99518.84;;;6.50;100.00
17505;BME280;8870;50.950;11.762;2023-05-03T06:45:27;99525.13;;;6.61;100.00
17505;BME280;8870;50.950;11.762;2023-05-03T06:50:58;99527.16;;;6.71;100.00
17505;BME280;8870;50.950;11.762;2023-05-03T06:56:31;99517.28;;;6.84;100.00
17505;BME280;8870;50.950;11.762;2023-05-03T07:01:50;99516.38;;;6.97;100.00
17505;BME280;8870;50.950;11.762;2023-05-03T07:07:21;99516.81;;;7.03;100.00
17505;BME280;8870;50.950;11.762;2023-05-03T07:12:41;99518.72;;;7.14;100.00
17505;BME280;8870;50.950;11.762;2023-05-03T07:18:13;99514.88;;;7.30;100.00
17505;BME280;8870;50.950;11.762;2023-05-03T07:23:32;99513.34;;;7.38;100.00
17505;BME280;8870;50.950;11.762;2023-05-03T07:29:06;99509.50;;;7.43;100.00
17505;BME280;8870;50.950;11.762;2023-05-03T07:34:32;99509.75;;;7.51;100.00
17505;BME280;8870;50.950;11.762;2023-05-03T07:40:04;99502.28;;;7.67;100.00
17505;BME280;8870;50.950;11.762;2023-05-03T07:45:26;99502.09;;;7.82;100.00
17505;BME280;8870;50.950;11.762;2023-05-03T07:50:59;99495.28;;;7.89;100.00
17505;BME280;8870;50.950;11.762;2023-05-03T07:56:19;99495.06;;;7.92;100.00
17505;BME280;8870;50.950;11.762;2023-05-03T08:01:52;99492.75;;;7.99;100.00
17505;BME280;8870;50.950;11.762;2023-05-03T08:07:11;99487.38;;;7.99;100.00
17505;BME280;8870;50.950;11.762;2023-05-03T08:12:43;99489.06;;;8.00;100.00
17505;BME280;8870;50.950;11.762;2023-05-03T08:18:04;99492.13;;;8.07;100.00
17505;BME280;8870;50.950;11.762;2023-05-03T08:23:38;99485.34;;;8.25;100.00
17505;BME280;8870;50.950;11.762;2023-05-03T08:28:56;99487.69;;;8.41;100.00
17505;BME280;8870;50.950;11.762;2023-05-03T08:34:29;99490.78;;;8.59;100.00
17505;BME280;8870;50.950;11.762;2023-05-03T08:39:48;99484.88;;;8.88;100.00
17505;BME280;8870;50.950;11.762;2023-05-03T08:45:19;99481.31;;;9.10;100.00
17505;BME280;8870;50.950;11.762;2023-05-03T08:50:40;99480.41;;;9.33;100.00
17505;BME280;8870;50.950;11.762;2023-05-03T08:56:22;99480.25;;;9.34;100.00
17505;BME280;8870;50.950;11.762;2023-05-03T09:01:41;99476.94;;;9.42;100.00
17505;BME280;8870;50.950;11.762;2023-05-03T09:07:15;99478.47;;;9.56;100.00
17505;BME280;8870;50.950;11.762;2023-05-03T09:12:35;99477.44;;;9.68;100.00
17505;BME280;8870;50.950;11.762;2023-05-03T09:18:11;99470.19;;;9.80;100.00
17505;BME280;8870;50.950;11.762;2023-05-03T09:23:32;99477.25;;;9.81;100.00
17505;BME280;8870;50.950;11.762;2023-05-03T09:29:05;99469.25;;;9.70;100.00
17505;BME280;8870;50.950;11.762;2023-05-03T09:34:24;99463.41;;;9.86;100.00
17505;BME280;8870;50.950;11.762;2023-05-03T09:40:07;99469.03;;;9.62;100.00
17505;BME280;8870;50.950;11.762;2023-05-03T09:45:32;99452.63;;;9.65;100.00
17505;BME280;8870;50.950;11.762;2023-05-03T09:51:04;99450.00;;;9.75;100.00
17505;BME280;8870;50.950;11.762;2023-05-03T09:56:25;99440.25;;;9.74;100.00
17505;BME280;8870;50.950;11.762;2023-05-03T10:02:00;99448.91;;;9.98;100.00
17505;BME280;8870;50.950;11.762;2023-05-03T10:07:33;99448.69;;;10.11;100.00
17505;BME280;8870;50.950;11.762;2023-05-03T10:12:55;99444.53;;;10.07;100.00
17505;BME280;8870;50.950;11.762;2023-05-03T10:18:30;99445.16;;;9.90;100.00
17505;BME280;8870;50.950;11.762;2023-05-03T10:24:10;99444.16;;;9.91;100.00
17505;BME280;8870;50.950;11.762;2023-05-03T10:29:50;99441.91;;;10.38;100.00
17505;BME280;8870;50.950;11.762;2023-05-03T10:35:09;99436.94;;;10.12;100.00
17505;BME280;8870;50.950;11.762;2023-05-03T10:40:43;99438.66;;;10.44;100.00
17505;BME280;8870;50.950;11.762;2023-05-03T10:46:04;99432.09;;;10.37;100.00
17505;BME280;8870;50.950;11.762;2023-05-03T10:51:40;99438.97;;;10.30;100.00
17505;BME280;8870;50.950;11.762;2023-05-03T10:56:59;99434.50;;;10.71;100.00
17505;BME280;8870;50.950;11.762;2023-05-03T11:02:36;99443.22;;;10.85;100.00
17505;BME280;8870;50.950;11.762;2023-05-03T11:08:07;99440.81;;;11.01;100.00
17505;BME280;8870;50.950;11.762;2023-05-03T11:13:40;99443.22;;;10.94;99.75
17505;BME280;8870;50.950;11.762;2023-05-03T11:19:01;99437.00;;;11.14;100.00
17505;BME280;8870;50.950;11.762;2023-05-03T11:24:33;99432.50;;;11.34;92.49
17505;BME280;8870;50.950;11.762;2023-05-03T11:29:51;99433.91;;;11.38;100.00
17505;BME280;8870;50.950;11.762;2023-05-03T11:35:27;99426.09;;;11.64;100.00
17505;BME280;8870;50.950;11.762;2023-05-03T11:40:58;99429.75;;;11.83;96.76
17505;BME280;8870;50.950;11.762;2023-05-03T11:46:17;99423.19;;;11.95;100.00
17505;BME280;8870;50.950;11.762;2023-05-03T11:51:52;99422.78;;;12.10;100.00
17505;BME280;8870;50.950;11.762;2023-05-03T11:57:11;99410.75;;;12.32;99.02
17505;BME280;8870;50.950;11.762;2023-05-03T12:02:43;99416.19;;;12.22;84.86
17505;BME280;8870;50.950;11.762;2023-05-03T12:08:04;99416.72;;;12.36;91.48
17505;BME280;8870;50.950;11.762;2023-05-03T12:13:40;99425.63;;;12.08;88.64
17505;BME280;8870;50.950;11.762;2023-05-03T12:18:59;99418.00;;;12.31;97.91
17505;BME280;8870;50.950;11.762;2023-05-03T12:24:33;99400.38;;;12.65;85.11
17505;BME280;8870;50.950;11.762;2023-05-03T12:29:53;99400.91;;;12.97;81.52
17505;BME280;8870;50.950;11.762;2023-05-03T12:35:25;99388.91;;;13.17;84.71
17505;BME280;8870;50.950;11.762;2023-05-03T12:40:50;99403.44;;;13.16;76.35
17505;BME280;8870;50.950;11.762;2023-05-03T12:46:23;99391.56;;;13.63;77.52
17505;BME280;8870;50.950;11.762;2023-05-03T12:51:43;99388.47;;;13.84;76.52
17505;BME280;8870;50.950;11.762;2023-05-03T12:57:38;99386.25;;;14.06;66.17
17505;BME280;8870;50.950;11.762;2023-05-03T13:03:17;99385.22;;;14.33;69.88
17505;BME280;8870;50.950;11.762;2023-05-03T13:08:57;99373.84;;;14.30;67.56
17505;BME280;8870;50.950;11.762;2023-05-03T13:14:19;99377.38;;;14.22;67.91
17505;BME280;8870;50.950;11.762;2023-05-03T13:19:52;99372.72;;;14.75;66.19
17505;BME280;8870;50.950;11.762;2023-05-03T13:25:10;99373.78;;;14.99;65.85
17505;BME280;8870;50.950;11.762;2023-05-03T13:30:44;99361.25;;;15.06;65.46
17505;BME280;8870;50.950;11.762;2023-05-03T13:36:04;99362.63;;;15.10;67.69
17505;BME280;8870;50.950;11.762;2023-05-03T13:41:39;99357.00;;;14.53;64.09
17505;BME280;8870;50.950;11.762;2023-05-03T13:47:03;99355.25;;;14.78;69.76
17505;BME280;8870;50.950;11.762;2023-05-03T13:52:24;99351.19;;;14.39;65.90
17505;BME280;8870;50.950;11.762;2023-05-03T13:57:55;99347.34;;;15.26;67.78
17505;BME280;8870;50.950;11.762;2023-05-03T14:03:19;99338.16;;;15.85;61.60
17505;BME280;8870;50.950;11.762;2023-05-03T14:08:51;99338.22;;;16.33;62.09
17505;BME280;8870;50.950;11.762;2023-05-03T14:14:13;99339.78;;;16.59;60.90
17505;BME280;8870;50.950;11.762;2023-05-03T14:19:45;99327.31;;;17.04;58.96
17505;BME280;8870;50.950;11.762;2023-05-03T14:25:19;99322.63;;;17.13;56.05
17505;BME280;8870;50.950;11.762;2023-05-03T14:30:37;99316.47;;;17.19;59.15
17505;BME280;8870;50.950;11.762;2023-05-03T14:36:12;99324.47;;;17.59;56.93
17505;BME280;8870;50.950;11.762;2023-05-03T14:41:30;99321.06;;;17.57;56.39
17505;BME280;8870;50.950;11.762;2023-05-03T14:47:02;99317.41;;;17.50;55.61
17505;BME280;8870;50.950;11.762;2023-05-03T14:52:23;99312.88;;;17.42;54.79
17505;BME280;8870;50.950;11.762;2023-05-03T14:57:55;99317.53;;;17.56;53.14
17505;BME280;8870;50.950;11.762;2023-05-03T15:03:14;99307.03;;;16.75;54.44
17505;BME280;8870;50.950;11.762;2023-05-03T15:08:48;99288.63;;;17.47;52.87
17505;BME280;8870;50.950;11.762;2023-05-03T15:14:09;99291.13;;;17.72;52.43
17505;BME280;8870;50.950;11.762;2023-05-03T15:19:41;99298.66;;;17.85;50.00
17505;BME280;8870;50.950;11.762;2023-05-03T15:25:02;99300.47;;;17.93;49.37
17505;BME280;8870;50.950;11.762;2023-05-03T15:30:33;99294.59;;;17.96;48.54
17505;BME280;8870;50.950;11.762;2023-05-03T15:35:51;99285.34;;;18.20;48.86
17505;BME280;8870;50.950;11.762;2023-05-03T15:41:25;99287.13;;;18.28;47.83
17505;BME280;8870;50.950;11.762;2023-05-03T15:46:44;99282.13;;;18.31;49.92
17505;BME280;8870;50.950;11.762;2023-05-03T15:52:15;99286.81;;;17.93;49.53
17505;BME280;8870;50.950;11.762;2023-05-03T15:57:36;99272.53;;;17.91;50.18
17505;BME280;8870;50.950;11.762;2023-05-03T16:03:08;99276.19;;;18.13;49.93
17505;BME280;8870;50.950;11.762;2023-05-03T16:08:27;99263.81;;;18.10;48.79
17505;BME280;8870;50.950;11.762;2023-05-03T16:14:02;99265.97;;;18.15;48.63
17505;BME280;8870;50.950;11.762;2023-05-03T16:19:23;99263.22;;;18.15;48.92
17505;BME280;8870;50.950;11.762;2023-05-03T16:24:56;99259.56;;;18.23;48.26
17505;BME280;8870;50.950;11.762;2023-05-03T16:30:17;99253.81;;;18.17;49.68
17505;BME280;8870;50.950;11.762;2023-05-03T16:35:49;99241.53;;;18.07;49.60
17505;BME280;8870;50.950;11.762;2023-05-03T16:41:07;99250.28;;;18.02;50.57
17505;BME280;8870;50.950;11.762;2023-05-03T16:46:41;99249.28;;;17.95;51.70
17505;BME280;8870;50.950;11.762;2023-05-03T16:52:00;99248.59;;;18.01;50.63
17505;BME280;8870;50.950;11.762;2023-05-03T16:57:32;99245.09;;;17.77;49.79
17505;BME280;8870;50.950;11.762;2023-05-03T17:02:54;99241.50;;;17.77;50.17
17505;BME280;8870;50.950;11.762;2023-05-03T17:08:26;99242.25;;;17.55;49.71
17505;BME280;8870;50.950;11.762;2023-05-03T17:13:44;99246.00;;;17.39;51.15
17505;BME280;8870;50.950;11.762;2023-05-03T17:19:20;99241.25;;;17.18;50.69
17505;BME280;8870;50.950;11.762;2023-05-03T17:24:56;99235.16;;;16.93;50.79
17505;BME280;8870;50.950;11.762;2023-05-03T17:30:14;99243.19;;;16.86;52.34
17505;BME280;8870;50.950;11.762;2023-05-03T17:35:50;99244.31;;;16.69;51.75
17505;BME280;8870;50.950;11.762;2023-05-03T17:41:09;99242.97;;;16.41;53.91
17505;BME280;8870;50.950;11.762;2023-05-03T17:46:40;99241.19;;;16.25;54.45
17505;BME280;8870;50.950;11.762;2023-05-03T17:52:01;99241.31;;;16.00;55.89
17505;BME280;8870;50.950;11.762;2023-05-03T17:57:33;99243.41;;;15.74;55.46
17505;BME280;8870;50.950;11.762;2023-05-03T18:02:51;99246.88;;;15.51;55.89
17505;BME280;8870;50.950;11.762;2023-05-03T18:08:24;99252.34;;;15.18;57.91
17505;BME280;8870;50.950;11.762;2023-05-03T18:13:43;99255.06;;;14.85;58.52
17505;BME280;8870;50.950;11.762;2023-05-03T18:19:15;99261.75;;;14.39;60.14
17505;BME280;8870;50.950;11.762;2023-05-03T18:24:52;99261.88;;;13.86;61.66
17505;BME280;8870;50.950;11.762;2023-05-03T18:30:11;99259.06;;;13.44;64.70
17505;BME280;8870;50.950;11.762;2023-05-03T18:35:46;99268.81;;;12.92;66.78
17505;BME280;8870;50.950;11.762;2023-05-03T18:41:10;99271.25;;;12.31;73.61
17505;BME280;8870;50.950;11.762;2023-05-03T18:46:42;99261.31;;;12.04;78.55
17505;BME280;8870;50.950;11.762;2023-05-03T18:52:00;99263.03;;;11.57;84.91
17505;BME280;8870;50.950;11.762;2023-05-03T18:57:35;99271.75;;;11.31;91.28
17505;BME280;8870;50.950;11.762;2023-05-03T19:02:55;99267.97;;;11.04;92.99
17505;BME280;8870;50.950;11.762;2023-05-03T19:08:27;99271.25;;;10.69;100.00
17505;BME280;8870;50.950;11.762;2023-05-03T19:13:48;99276.31;;;10.52;100.00
17505;BME280;8870;50.950;11.762;2023-05-03T19:19:19;99271.72;;;10.33;100.00
17505;BME280;8870;50.950;11.762;2023-05-03T19:24:51;99275.94;;;10.16;100.00
17505;BME280;8870;50.950;11.762;2023-05-03T19:30:15;99274.03;;;9.97;100.00
17505;BME280;8870;50.950;11.762;2023-05-03T19:35:47;99274.41;;;9.82;100.00
17505;BME280;8870;50.950;11.762;2023-05-03T19:41:06;99272.34;;;9.65;100.00
17505;BME280;8870;50.950;11.762;2023-05-03T19:46:40;99276.50;;;9.48;100.00
17505;BME280;8870;50.950;11.762;2023-05-03T19:51:59;99260.84;;;9.32;100.00
17505;BME280;8870;50.950;11.762;2023-05-03T19:57:30;99263.16;;;9.15;100.00
17505;BME280;8870;50.950;11.762;2023-05-03T20:02:51;99259.22;;;8.98;100.00
17505;BME280;8870;50.950;11.762;2023-05-03T20:08:23;99268.91;;;8.89;100.00
17505;BME280;8870;50.950;11.762;2023-05-03T20:13:41;99267.53;;;8.74;100.00
17505;BME280;8870;50.950;11.762;2023-05-03T20:19:16;99255.84;;;8.63;100.00
17505;BME280;8870;50.950;11.762;2023-05-03T20:24:49;99254.78;;;8.43;100.00
17505;BME280;8870;50.950;11.762;2023-05-03T20:30:08;99250.19;;;8.34;100.00
17505;BME280;8870;50.950;11.762;2023-05-03T20:35:42;99250.31;;;8.21;100.00
17505;BME280;8870;50.950;11.762;2023-05-03T20:41:01;99252.44;;;8.06;100.00
17505;BME280;8870;50.950;11.762;2023-05-03T20:46:33;99255.50;;;7.90;100.00
17505;BME280;8870;50.950;11.762;2023-05-03T20:51:55;99248.69;;;7.75;100.00
17505;BME280;8870;50.950;11.762;2023-05-03T20:57:27;99255.53;;;7.67;100.00
17505;BME280;8870;50.950;11.762;2023-05-03T21:02:45;99256.38;;;7.56;100.00
17505;BME280;8870;50.950;11.762;2023-05-03T21:08:19;99262.47;;;7.47;100.00
17505;BME280;8870;50.950;11.762;2023-05-03T21:13:37;99254.41;;;7.36;100.00
17505;BME280;8870;50.950;11.762;2023-05-03T21:19:08;99259.16;;;7.32;100.00
17505;BME280;8870;50.950;11.762;2023-05-03T21:24:29;99251.09;;;7.21;100.00
17505;BME280;8870;50.950;11.762;2023-05-03T21:30:03;99256.31;;;7.11;100.00
17505;BME280;8870;50.950;11.762;2023-05-03T21:35:23;99259.44;;;6.93;100.00
17505;BME280;8870;50.950;11.762;2023-05-03T21:41:03;99252.75;;;6.88;100.00
17505;BME280;8870;50.950;11.762;2023-05-03T21:46:22;99257.81;;;6.79;100.00
17505;BME280;8870;50.950;11.762;2023-05-03T21:51:54;99260.22;;;6.71;100.00
17505;BME280;8870;50.950;11.762;2023-05-03T21:57:15;99260.91;;;6.62;100.00
17505;BME280;8870;50.950;11.762;2023-05-03T22:02:47;99261.13;;;6.59;100.00
17505;BME280;8870;50.950;11.762;2023-05-03T22:08:05;99261.59;;;6.53;100.00
17505;BME280;8870;50.950;11.762;2023-05-03T22:13:42;99260.34;;;6.45;100.00
17505;BME280;8870;50.950;11.762;2023-05-03T22:19:22;99244.97;;;6.36;100.00
17505;BME280;8870;50.950;11.762;2023-05-03T22:24:54;99245.66;;;6.27;100.00
17505;BME280;8870;50.950;11.762;2023-05-03T22:30:15;99238.81;;;6.23;100.00
17505;BME280;8870;50.950;11.762;2023-05-03T22:35:46;99239.50;;;6.13;100.00
17505;BME280;8870;50.950;11.762;2023-05-03T22:41:04;99240.69;;;6.09;100.00
17505;BME280;8870;50.950;11.762;2023-05-03T22:46:39;99243.56;;;6.06;100.00
17505;BME280;8870;50.950;11.762;2023-05-03T22:51:57;99234.94;;;6.03;100.00
17505;BME280;8870;50.950;11.762;2023-05-03T22:57:30;99233.78;;;5.94;100.00
17505;BME280;8870;50.950;11.762;2023-05-03T23:02:51;99236.03;;;5.87;100.00
17505;BME280;8870;50.950;11.762;2023-05-03T23:08:22;99228.03;;;5.74;100.00
17505;BME280;8870;50.950;11.762;2023-05-03T23:13:40;99232.75;;;5.70;100.00
17505;BME280;8870;50.950;11.762;2023-05-03T23:19:14;99223.13;;;5.68;100.00
17505;BME280;8870;50.950;11.762;2023-05-03T23:24:32;99234.25;;;5.62;100.00
17505;BME280;8870;50.950;11.762;2023-05-03T23:30:04;99219.41;;;5.58;100.00
17505;BME280;8870;50.950;11.762;2023-05-03T23:35:26;99226.78;;;5.41;100.00
17505;BME280;8870;50.950;11.762;2023-05-03T23:40:57;99216.78;;;5.32;100.00
17505;BME280;8870;50.950;11.762;2023-05-03T23:46:15;99212.50;;;5.29;100.00
17505;BME280;8870;50.950;11.762;2023-05-03T23:51:50;99213.75;;;5.23;100.00
17505;BME280;8870;50.950;11.762;2023-05-03T23:57:08;99208.53;;;5.22;100.00
